Time;durP1;ratioP1;P1;durP2;ratioP2;P2;SDS_P1;SDS_P2;PMS_P1;PMS_P2;Temp;Humidity;BMP_temperature;BMP_pressure;BME280_temperature;BME280_humidity;BME280_pressure;Samples;Min_cycle;Max_cycle;Signal;HPM_P1;HPM_P2
2022/12/11 00:00:40;;;;;;;5.55;2.60;;;;;;;15.33;100.00;95166.13;5059322;28;20047;-80
2022/12/11 00:03:06;;;;;;;21.52;8.55;;;;;;;15.22;100.00;95132.41;5053342;28;20101;-80
2022/12/11 00:05:32;;;;;;;23.77;12.40;;;;;;;15.14;100.00;95119.84;5035069;28;20454;-80
2022/12/11 00:07:58;;;;;;;6.90;3.95;;;;;;;15.12;100.00;95123.75;5034941;28;20122;-80
2022/12/11 00:10:24;;;;;;;7.15;3.28;;;;;;;15.06;100.00;95138.78;5051656;28;20064;-80
2022/12/11 00:12:49;;;;;;;6.43;3.28;;;;;;;14.94;100.00;95134.84;5034906;28;20033;-80
2022/12/11 00:15:15;;;;;;;11.68;3.33;;;;;;;14.83;100.00;95142.47;5055141;28;20029;-80
2022/12/11 00:17:40;;;;;;;7.47;3.00;;;;;;;14.61;100.00;95126.16;5071597;28;20048;-81
2022/12/11 00:20:06;;;;;;;30.65;12.77;;;;;;;14.38;100.00;95144.16;5053760;28;20115;-80
2022/12/11 00:22:32;;;;;;;8.93;3.92;;;;;;;14.08;100.00;95136.88;5051845;28;20028;-80
2022/12/11 00:24:58;;;;;;;12.63;4.95;;;;;;;14.04;100.00;95141.78;5051284;28;20091;-80
2022/12/11 00:27:24;;;;;;;14.57;7.00;;;;;;;13.99;100.00;95132.56;5070955;28;20392;-80
2022/12/11 00:29:49;;;;;;;11.45;6.07;;;;;;;13.83;100.00;95138.00;5054148;28;20036;-81
2022/12/11 00:32:46;;;;;;;10.80;5.95;;;;;;;13.75;100.00;95130.78;5050134;28;20028;-80
2022/12/11 00:36:02;;;;;;;;;;;;;;;;;;;;;
2022/12/11 00:38:28;;;;;;;17.15;8.35;;;;;;;13.89;100.00;95062.91;5059127;28;20376;-80
2022/12/11 00:40:59;;;;;;;18.13;9.77;;;;;;;14.13;100.00;95118.38;5043491;28;20116;-80
2022/12/11 00:43:25;;;;;;;16.40;6.85;;;;;;;14.12;100.00;95122.06;5045465;28;20099;-80
2022/12/11 00:45:51;;;;;;;5.32;2.90;;;;;;;14.08;100.00;95132.34;5069000;28;20108;-80
2022/12/11 00:48:16;;;;;;;11.13;5.93;;;;;;;13.92;100.00;95136.94;5046975;28;20089;-79
2022/12/11 00:50:42;;;;;;;9.77;5.50;;;;;;;13.82;100.00;95139.00;5068483;28;20107;-80
2022/12/11 00:53:07;;;;;;;8.27;4.15;;;;;;;13.70;100.00;95135.84;5046103;28;20033;-79
2022/12/11 00:55:38;;;;;;;9.10;3.97;;;;;;;14.33;100.00;95140.31;5034220;28;20443;-80
2022/12/11 00:58:03;;;;;;;9.45;4.05;;;;;;;14.17;100.00;95124.25;5038167;28;20512;-80
2022/12/11 01:00:29;;;;;;;8.10;3.67;;;;;;;14.07;100.00;95119.06;5033792;28;20021;-79
2022/12/11 01:02:55;;;;;;;7.75;2.55;;;;;;;14.24;100.00;95120.69;5050530;28;20044;-79
2022/12/11 01:05:20;;;;;;;4.57;2.60;;;;;;;14.41;100.00;95122.28;5043551;28;20029;-79
2022/12/11 01:07:46;;;;;;;8.15;2.90;;;;;;;14.79;100.00;95131.25;5070836;28;20112;-79
2022/12/11 01:10:24;;;;;;;5.35;2.20;;;;;;;14.94;100.00;95115.16;5070579;28;20031;-81
2022/12/11 01:12:50;;;;;;;5.30;2.30;;;;;;;15.24;100.00;95119.59;5070701;28;20046;-80
2022/12/11 01:15:17;;;;;;;5.72;1.73;;;;;;;15.32;100.00;95111.41;5062741;28;20033;-81
2022/12/11 01:17:42;;;;;;;4.65;2.58;;;;;;;15.35;100.00;95094.88;5069451;28;20119;-81
2022/12/11 01:20:11;;;;;;;6.00;2.25;;;;;;;15.31;100.00;95090.91;5070172;28;20040;-81
2022/12/11 01:22:36;;;;;;;10.70;2.63;;;;;;;15.27;100.00;95097.66;5043312;28;20047;-80
2022/12/11 01:25:02;;;;;;;5.05;2.60;;;;;;;15.46;100.00;95096.31;5033701;28;20025;-80
2022/12/11 01:27:28;;;;;;;9.20;1.77;;;;;;;15.67;100.00;95086.50;5042392;28;20036;-80
2022/12/11 01:29:53;;;;;;;5.03;1.50;;;;;;;15.89;100.00;95100.88;5057717;28;20102;-80
2022/12/11 01:32:19;;;;;;;2.88;1.88;;;;;;;16.06;100.00;95096.09;5058532;28;20039;-80
2022/12/11 01:34:44;;;;;;;4.82;1.88;;;;;;;16.19;100.00;95088.19;5062311;28;20128;-79
2022/12/11 01:37:10;;;;;;;4.32;2.22;;;;;;;16.30;100.00;95090.41;5061756;28;20028;-81
2022/12/11 01:39:37;;;;;;;6.72;1.73;;;;;;;16.21;100.00;95103.13;5035426;28;20443;-80
2022/12/11 01:42:03;;;;;;;3.55;1.60;;;;;;;16.31;100.00;95102.84;5033690;28;20021;-80
2022/12/11 01:44:29;;;;;;;3.33;1.65;;;;;;;16.42;100.00;95096.97;5049693;28;20444;-80
2022/12/11 01:46:54;;;;;;;9.82;2.05;;;;;;;16.57;100.00;95094.25;5058416;28;20029;-81
2022/12/11 01:49:22;;;;;;;4.30;1.92;;;;;;;16.54;100.00;95084.66;5040351;28;20128;-79
2022/12/11 01:51:51;;;;;;;4.22;1.90;;;;;;;16.61;99.36;95082.84;5052996;28;20109;-80
2022/12/11 01:54:19;;;;;;;7.82;1.80;;;;;;;16.67;98.81;95087.47;5052445;28;20029;-80
2022/12/11 01:56:45;;;;;;;9.07;1.92;;;;;;;16.68;98.34;95077.53;5042904;28;20124;-81
2022/12/11 01:59:14;;;;;;;7.22;2.20;;;;;;;16.73;98.17;95086.72;5052530;28;20027;-80
2022/12/11 02:01:45;;;;;;;2.85;1.35;;;;;;;16.83;96.76;95072.09;5057470;28;20024;-80
2022/12/11 02:04:12;;;;;;;6.35;1.70;;;;;;;16.83;96.59;95080.19;5033203;28;20064;-80
2022/12/11 02:06:43;;;;;;;3.90;2.00;;;;;;;16.76;96.38;95053.94;5050048;28;20090;-80
2022/12/11 02:09:24;;;;;;;4.10;1.33;;;;;;;16.80;96.32;95060.63;5040715;28;20400;-79
2022/12/11 02:12:08;;;;;;;5.63;1.50;;;;;;;16.84;96.79;95071.88;5069712;28;20029;-81
2022/12/11 02:14:52;;;;;;;3.15;1.50;;;;;;;16.91;95.65;95094.38;5065220;28;20099;-80
2022/12/11 02:17:27;;;;;;;5.47;1.85;;;;;;;16.86;95.63;95071.69;5049327;28;20111;-79
2022/12/11 02:20:02;;;;;;;4.70;2.17;;;;;;;16.89;95.68;95087.50;5052003;28;20404;-80
2022/12/11 02:22:46;;;;;;;48.53;2.85;;;;;;;16.92;95.33;95081.72;5070162;28;20039;-80
2022/12/11 02:25:31;;;;;;;4.20;1.42;;;;;;;16.83;95.81;95059.38;5063982;28;20025;-80
2022/12/11 02:28:15;;;;;;;3.25;1.35;;;;;;;16.89;96.78;95079.41;5058242;28;20108;-79
2022/12/11 02:30:42;;;;;;;17.55;2.83;;;;;;;16.74;99.53;95087.56;5064285;28;20504;-80
2022/12/11 02:33:09;;;;;;;6.18;2.10;;;;;;;16.59;100.00;95122.72;5069486;28;20032;-80
2022/12/11 02:35:39;;;;;;;3.00;1.65;;;;;;;16.50;100.00;95107.63;5053382;28;20029;-79
2022/12/11 02:38:18;;;;;;;112.28;6.53;;;;;;;16.32;100.00;95123.41;5044782;28;20032;-80
2022/12/11 02:40:44;;;;;;;3.38;1.60;;;;;;;15.95;100.00;95108.22;5063292;28;20112;-81
2022/12/11 02:43:12;;;;;;;2.97;1.38;;;;;;;15.84;100.00;95111.41;5049157;28;20495;-80
2022/12/11 02:45:39;;;;;;;2.78;1.55;;;;;;;15.78;100.00;95111.31;5049452;28;20021;-81
2022/12/11 02:48:07;;;;;;;4.28;1.52;;;;;;;15.88;100.00;95109.97;5049420;28;20017;-80
2022/12/11 02:50:33;;;;;;;5.50;1.30;;;;;;;16.01;100.00;95106.63;5049423;28;20100;-80
2022/12/11 02:53:00;;;;;;;75.40;5.57;;;;;;;16.04;100.00;95090.06;5059995;28;20495;-80
2022/12/11 02:55:26;;;;;;;1.67;1.13;;;;;;;16.22;100.00;95101.28;5063293;28;20064;-80
2022/12/11 02:58:04;;;;;;;20.02;1.52;;;;;;;16.45;100.00;95084.94;5065861;28;20484;-79
2022/12/11 03:00:30;;;;;;;3.17;1.55;;;;;;;16.55;99.25;95072.81;5069321;28;20020;-80
2022/12/11 03:02:57;;;;;;;3.22;1.20;;;;;;;16.55;100.00;95067.44;5059175;28;20017;-81
2022/12/11 03:05:23;;;;;;;2.28;1.48;;;;;;;16.47;100.00;95069.41;5033096;28;20476;-80
2022/12/11 03:07:48;;;;;;;9.50;1.75;;;;;;;16.32;100.00;95088.34;5044850;28;20017;-80
2022/12/11 03:10:17;;;;;;;2.92;1.45;;;;;;;16.28;100.00;95108.63;5065885;28;20087;-81
2022/12/11 03:12:45;;;;;;;3.80;1.30;;;;;;;16.27;100.00;95105.06;5036191;28;20542;-81
2022/12/11 03:15:14;;;;;;;3.13;1.20;;;;;;;16.22;100.00;95114.75;5047052;28;20038;-80
2022/12/11 03:17:49;;;;;;;2.25;1.55;;;;;;;16.28;100.00;95138.28;5035895;28;20576;-81
2022/12/11 03:21:03;;;;;;;;;;;;;;;;;;;;;
2022/12/11 03:23:32;;;;;;;3.35;1.20;;;;;;;16.30;99.52;95127.31;5053240;28;20429;-81
2022/12/11 03:26:01;;;;;;;2.50;1.10;;;;;;;16.28;98.42;95109.47;5068674;28;20064;-81
2022/12/11 03:28:34;;;;;;;2.00;1.30;;;;;;;16.28;99.31;95135.59;5053096;28;20102;-82
2022/12/11 03:31:04;;;;;;;3.70;1.60;;;;;;;16.13;100.00;95127.53;5042434;28;20020;-80
2022/12/11 03:33:38;;;;;;;9.40;1.38;;;;;;;16.47;94.25;95126.06;5072352;28;20051;-81
2022/12/11 03:36:08;;;;;;;2.95;0.90;;;;;;;16.60;93.08;95134.34;5071641;28;20017;-81
2022/12/11 03:38:45;;;;;;;2.40;1.05;;;;;;;16.68;93.08;95116.16;5052080;28;20116;-80
2022/12/11 03:41:12;;;;;;;1.48;0.95;;;;;;;16.66;92.79;95102.03;5035571;28;20017;-80
2022/12/11 03:43:39;;;;;;;2.67;1.20;;;;;;;16.58;93.78;95093.22;5052198;28;20024;-79
2022/12/11 03:46:07;;;;;;;5.47;1.95;;;;;;;16.51;93.93;95082.31;5043712;28;20045;-79
2022/12/11 03:48:35;;;;;;;2.03;0.90;;;;;;;16.54;92.42;95084.66;5037976;28;20036;-81
2022/12/11 03:51:05;;;;;;;6.45;1.17;;;;;;;16.58;92.33;95085.94;5035324;28;20025;-81
2022/12/11 03:53:32;;;;;;;3.58;0.77;;;;;;;16.68;89.82;95091.88;5065997;28;20484;-80
2022/12/11 03:55:59;;;;;;;2.25;1.23;;;;;;;16.64;90.62;95098.66;5051709;28;20057;-80
2022/12/11 03:58:25;;;;;;;2.83;1.10;;;;;;;16.52;91.89;95119.06;5035287;28;20036;-82
2022/12/11 04:00:50;;;;;;;3.67;1.13;;;;;;;16.44;91.95;95119.19;5043570;28;20032;-81
2022/12/11 04:03:16;;;;;;;1.63;1.15;;;;;;;16.39;91.70;95129.72;5040519;28;20024;-80
2022/12/11 04:05:49;;;;;;;4.13;1.30;;;;;;;16.29;93.29;95134.56;5048711;28;20029;-80
2022/12/11 04:08:16;;;;;;;4.50;1.15;;;;;;;16.30;93.27;95138.97;5043202;28;20036;-81
2022/12/11 04:10:42;;;;;;;2.20;1.27;;;;;;;16.33;92.87;95152.06;5071617;28;20553;-81
2022/12/11 04:13:08;;;;;;;3.95;1.20;;;;;;;16.42;91.79;95145.53;5068969;28;20020;-81
2022/12/11 04:15:34;;;;;;;5.35;1.42;;;;;;;16.33;92.71;95140.44;5054767;28;20107;-81
2022/12/11 04:26:15;;;;;;;3.08;0.80;;;;;;;16.51;88.83;95106.59;5060669;28;20036;-80
2022/12/11 04:28:42;;;;;;;2.05;1.20;;;;;;;16.44;89.02;95091.38;5043195;28;20116;-81
2022/12/11 04:31:16;;;;;;;5.53;1.02;;;;;;;16.35;88.44;95092.50;5037178;28;20101;-82
2022/12/11 04:33:42;;;;;;;2.75;1.10;;;;;;;16.22;90.52;95096.72;5042521;28;20110;-81
2022/12/11 04:36:08;;;;;;;5.45;3.30;;;;;;;16.12;91.19;95089.94;5065048;28;20111;-80
2022/12/11 04:38:34;;;;;;;6.57;1.77;;;;;;;15.98;93.07;95093.53;5041417;28;20032;-81
2022/12/11 04:41:02;;;;;;;3.08;1.63;;;;;;;15.94;93.43;95100.31;5038471;28;20024;-79
2022/12/11 04:43:28;;;;;;;3.67;1.88;;;;;;;15.80;93.13;95087.69;5039707;28;20024;-80
2022/12/11 04:46:04;;;;;;;3.65;1.65;;;;;;;15.58;96.11;95100.25;5069734;28;20031;-80
2022/12/11 04:48:30;;;;;;;5.05;2.00;;;;;;;15.41;95.33;95109.50;5064784;28;20025;-80
2022/12/11 04:50:56;;;;;;;4.38;1.90;;;;;;;15.37;96.61;95138.66;5065747;28;20029;-81
2022/12/11 04:53:22;;;;;;;2.13;1.55;;;;;;;15.23;100.00;95158.28;5045631;28;20070;-82
2022/12/11 04:55:47;;;;;;;3.72;2.13;;;;;;;15.10;100.00;95169.69;5040585;28;20029;-80
2022/12/11 04:58:13;;;;;;;7.35;2.95;;;;;;;15.01;100.00;95178.03;5050286;28;20025;-81
2022/12/11 05:00:39;;;;;;;5.43;2.20;;;;;;;14.91;100.00;95188.19;5049010;28;20099;-81
2022/12/11 05:03:05;;;;;;;4.78;2.00;;;;;;;14.94;100.00;95201.28;5070371;28;20569;-81
2022/12/11 05:05:31;;;;;;;8.05;2.15;;;;;;;15.05;100.00;95182.00;5051317;28;20116;-82
2022/12/11 05:07:56;;;;;;;2.85;1.83;;;;;;;15.14;100.00;95194.38;5034108;28;20233;-81
2022/12/11 05:10:22;;;;;;;4.15;2.30;;;;;;;15.04;100.00;95193.81;5050066;28;20032;-82
2022/12/11 05:12:47;;;;;;;6.53;2.30;;;;;;;14.95;100.00;95201.09;5050279;28;20032;-80
2022/12/11 05:15:13;;;;;;;3.42;1.60;;;;;;;14.97;100.00;95206.31;5057126;28;20028;-75
2022/12/11 05:17:38;;;;;;;10.00;4.53;;;;;;;14.96;100.00;95216.25;5040202;28;20286;-81
2022/12/11 05:20:04;;;;;;;6.30;3.20;;;;;;;14.94;100.00;95222.81;5064023;28;20416;-80
2022/12/11 05:22:30;;;;;;;5.65;3.13;;;;;;;14.94;100.00;95222.81;5044614;28;20510;-82
2022/12/11 05:24:56;;;;;;;6.82;2.88;;;;;;;14.90;100.00;95230.41;5054647;28;20024;-82
2022/12/11 05:27:22;;;;;;;4.32;2.20;;;;;;;14.86;100.00;95244.41;5069742;28;20427;-81
2022/12/11 05:29:47;;;;;;;6.32;2.92;;;;;;;14.84;100.00;95243.75;5061701;28;20021;-80
2022/12/11 05:32:13;;;;;;;11.95;3.75;;;;;;;14.80;100.00;95231.66;5058356;28;20032;-80
2022/12/11 05:34:38;;;;;;;5.82;3.33;;;;;;;14.75;100.00;95223.28;5038969;28;20020;-81
2022/12/11 05:37:04;;;;;;;8.55;5.18;;;;;;;14.79;100.00;95232.69;5041926;28;20032;-81
2022/12/11 05:39:30;;;;;;;7.28;3.88;;;;;;;14.62;100.00;95226.53;5041553;28;20095;-81
2022/12/11 05:41:55;;;;;;;9.73;5.68;;;;;;;14.54;100.00;95231.97;5033300;28;20051;-81
2022/12/11 05:44:21;;;;;;;16.83;8.07;;;;;;;14.32;100.00;95238.94;5040358;28;20063;-80
2022/12/11 05:46:46;;;;;;;13.75;7.22;;;;;;;14.20;100.00;95234.94;5058992;28;20013;-81
2022/12/11 05:49:12;;;;;;;11.70;6.55;;;;;;;14.15;100.00;95223.88;5055574;28;20027;-79
2022/12/11 05:51:38;;;;;;;10.35;5.72;;;;;;;14.12;100.00;95232.28;5050156;28;20419;-80
2022/12/11 05:54:04;;;;;;;23.85;11.75;;;;;;;14.18;100.00;95241.53;5037731;28;20103;-80
2022/12/11 05:56:32;;;;;;;56.60;23.63;;;;;;;14.16;100.00;95241.69;5069726;28;20063;-80
2022/12/11 05:59:34;;;;;;;;;;;;;;;;;;;;;
2022/12/11 06:01:59;;;;;;;72.22;31.92;;;;;;;14.25;100.00;95229.88;5049353;28;20397;-82
2022/12/11 06:04:25;;;;;;;34.95;15.77;;;;;;;14.37;100.00;95233.91;5044640;28;20119;-81
2022/12/11 06:06:53;;;;;;;37.72;20.40;;;;;;;14.55;100.00;95241.72;5044973;28;20017;-81
2022/12/11 06:09:19;;;;;;;27.83;14.45;;;;;;;14.61;100.00;95247.22;5038273;28;20028;-81
2022/12/11 06:11:44;;;;;;;29.50;13.25;;;;;;;14.68;100.00;95251.91;5058081;28;20028;-81
2022/12/11 06:14:10;;;;;;;20.13;8.90;;;;;;;14.76;100.00;95257.25;5050283;28;20067;-81
2022/12/11 06:16:36;;;;;;;21.65;10.07;;;;;;;14.77;100.00;95261.59;5044569;28;20450;-81
2022/12/11 06:19:02;;;;;;;22.42;11.82;;;;;;;14.77;100.00;95270.50;5049408;28;20031;-81
2022/12/11 06:21:32;;;;;;;29.83;14.00;;;;;;;14.84;100.00;95279.56;5060631;28;20025;-82
2022/12/11 06:23:59;;;;;;;10.13;5.18;;;;;;;14.84;100.00;95284.13;5053154;28;20475;-80
2022/12/11 06:26:26;;;;;;;9.00;4.18;;;;;;;14.99;98.61;95268.88;5040266;28;20033;-81
2022/12/11 06:28:52;;;;;;;6.82;2.40;;;;;;;15.11;95.81;95262.91;5069386;28;20157;-81
2022/12/11 06:31:18;;;;;;;11.88;5.90;;;;;;;15.25;94.67;95266.69;5047058;28;20115;-81
2022/12/11 06:33:44;;;;;;;9.32;4.65;;;;;;;15.43;92.66;95274.47;5040951;28;20444;-81
2022/12/11 06:36:12;;;;;;;12.82;6.22;;;;;;;15.65;90.11;95269.09;5062145;28;20071;-81
2022/12/11 06:38:37;;;;;;;13.73;4.90;;;;;;;15.93;87.56;95271.19;5053115;28;20025;-82
2022/12/11 06:41:04;;;;;;;10.55;5.50;;;;;;;16.01;86.66;95268.41;5044595;28;20081;-81
2022/12/11 06:43:31;;;;;;;9.15;3.97;;;;;;;16.09;85.82;95263.75;5043307;28;20515;-81
2022/12/11 06:45:56;;;;;;;9.43;3.80;;;;;;;16.21;84.32;95259.56;5062860;28;20503;-81
2022/12/11 06:48:23;;;;;;;7.15;2.58;;;;;;;16.33;83.31;95256.44;5040917;28;20025;-82
2022/12/11 06:50:48;;;;;;;10.90;5.80;;;;;;;16.46;82.72;95257.44;5045031;28;20029;-82
2022/12/11 06:53:15;;;;;;;13.98;6.93;;;;;;;16.51;84.70;95275.78;5042620;28;20035;-82
2022/12/11 06:55:41;;;;;;;20.30;7.22;;;;;;;17.05;83.27;95290.63;5051352;28;20028;-80
2022/12/11 06:58:07;;;;;;;14.00;6.63;;;;;;;17.66;81.03;95297.31;5045291;28;20090;-81
2022/12/11 07:00:37;;;;;;;16.05;7.32;;;;;;;18.25;77.88;95295.13;5053422;28;20025;-82
2022/12/11 07:03:03;;;;;;;19.73;8.02;;;;;;;18.80;74.64;95296.94;5043314;28;20025;-82
2022/12/11 07:05:29;;;;;;;14.07;7.47;;;;;;;18.86;72.21;95270.91;5059743;28;20094;-81
2022/12/11 07:07:55;;;;;;;20.48;8.73;;;;;;;18.78;71.08;95250.28;5051676;28;20036;-82
2022/12/11 07:10:21;;;;;;;14.68;7.93;;;;;;;18.69;71.82;95243.34;5044415;28;20456;-82
2022/12/11 07:12:47;;;;;;;14.07;7.75;;;;;;;18.68;72.47;95257.94;5060156;28;20064;-81
2022/12/11 07:15:12;;;;;;;34.35;19.63;;;;;;;18.37;73.19;95235.84;5057326;28;20032;-80
2022/12/11 07:17:38;;;;;;;22.10;11.68;;;;;;;18.37;73.58;95238.56;5062451;28;20101;-82
2022/12/11 07:20:04;;;;;;;15.18;7.57;;;;;;;18.54;72.99;95252.66;5043770;28;20025;-81
2022/12/11 07:22:30;;;;;;;18.05;8.52;;;;;;;18.18;74.11;95239.28;5049376;28;20384;-83
2022/12/11 07:24:55;;;;;;;28.40;14.75;;;;;;;18.19;74.97;95251.78;5050237;28;20089;-81
2022/12/11 07:27:21;;;;;;;21.15;12.10;;;;;;;17.95;76.73;95226.00;5036589;28;20037;-77
2022/12/11 07:29:47;;;;;;;18.52;9.40;;;;;;;17.97;77.21;95214.97;5039979;28;20020;-76
2022/12/11 07:32:13;;;;;;;15.85;8.77;;;;;;;17.48;78.52;95221.22;5058405;28;20052;-77
2022/12/11 07:34:38;;;;;;;23.38;9.75;;;;;;;17.37;80.17;95235.28;5056636;28;20035;-78
2022/12/11 07:37:04;;;;;;;12.13;5.97;;;;;;;17.55;79.04;95260.00;5048417;28;20111;-78
2022/12/11 07:39:30;;;;;;;18.52;6.40;;;;;;;17.41;78.47;95265.47;5059837;28;20112;-76
2022/12/11 07:41:55;;;;;;;41.58;17.98;;;;;;;17.40;82.96;95293.50;5064043;28;20570;-75
2022/12/11 07:44:21;;;;;;;42.10;21.08;;;;;;;17.52;80.35;95279.28;5054360;28;20526;-73
2022/12/11 07:46:46;;;;;;;37.22;18.73;;;;;;;17.62;84.73;95303.34;5065973;28;20025;-72
2022/12/11 07:49:12;;;;;;;45.03;21.90;;;;;;;17.62;85.03;95317.69;5065034;28;20033;-73
2022/12/11 07:51:38;;;;;;;39.22;19.38;;;;;;;17.97;80.38;95306.94;5063166;28;20101;-74
2022/12/11 07:54:06;;;;;;;26.23;15.70;;;;;;;18.34;79.10;95317.44;5063793;28;20032;-81
2022/12/11 07:56:32;;;;;;;28.67;12.85;;;;;;;18.54;74.67;95299.53;5048589;28;20409;-76
2022/12/11 07:58:59;;;;;;;52.13;27.23;;;;;;;18.65;77.87;95323.31;5052654;28;20111;-73
2022/12/11 08:01:26;;;;;;;31.00;14.35;;;;;;;18.38;77.86;95332.28;5053004;28;20028;-74
2022/12/11 08:03:52;;;;;;;35.85;18.23;;;;;;;18.59;78.32;95339.53;5057942;28;20399;-74
2022/12/11 08:06:20;;;;;;;35.22;18.58;;;;;;;18.64;76.18;95320.81;5067193;28;20040;-74
2022/12/11 08:08:46;;;;;;;42.97;19.80;;;;;;;18.88;74.89;95325.75;5067015;28;20029;-74
2022/12/11 08:11:14;;;;;;;46.58;25.25;;;;;;;19.08;79.45;95350.22;5052815;28;20377;-73
2022/12/11 08:13:41;;;;;;;45.80;21.60;;;;;;;18.83;75.80;95326.34;5065724;28;20028;-75
2022/12/11 08:16:10;;;;;;;51.15;21.92;;;;;;;18.76;76.80;95324.66;5068606;28;20040;-76
2022/12/11 08:18:36;;;;;;;41.55;19.92;;;;;;;18.61;76.50;95321.22;5045445;28;20371;-73
2022/12/11 08:21:11;;;;;;;35.30;19.45;;;;;;;18.54;76.88;95323.03;5051852;28;20031;-72
2022/12/11 08:23:36;;;;;;;32.05;16.75;;;;;;;18.48;79.79;95332.78;5040776;28;20064;-72
2022/12/11 08:26:03;;;;;;;26.58;15.60;;;;;;;18.36;81.37;95324.34;5061041;28;20064;-72
2022/12/11 08:28:29;;;;;;;12.65;6.53;;;;;;;18.29;76.87;95311.81;5042478;28;20039;-72
2022/12/11 08:30:55;;;;;;;10.02;5.10;;;;;;;18.17;77.15;95297.16;5066662;28;20025;-73
2022/12/11 08:33:21;;;;;;;17.55;8.13;;;;;;;17.95;85.88;95312.56;5042677;28;20029;-72
2022/12/11 08:35:46;;;;;;;9.95;6.18;;;;;;;17.88;81.03;95309.81;5068514;28;20352;-74
2022/12/11 08:38:12;;;;;;;13.02;7.00;;;;;;;17.82;80.99;95316.00;5057696;28;20418;-72
2022/12/11 08:40:38;;;;;;;25.75;9.68;;;;;;;17.64;81.80;95314.78;5064182;28;20442;-72
2022/12/11 08:43:03;;;;;;;23.08;9.70;;;;;;;17.58;85.60;95318.25;5064199;28;20064;-71
2022/12/11 08:45:29;;;;;;;37.67;17.38;;;;;;;17.55;85.59;95319.47;5061931;28;20050;-73
2022/12/11 08:47:54;;;;;;;43.03;19.33;;;;;;;17.55;85.60;95316.78;5067836;28;20020;-73
2022/12/11 08:50:20;;;;;;;55.58;21.45;;;;;;;17.53;84.69;95316.09;5054280;28;20035;-71
2022/12/11 08:52:45;;;;;;;40.63;18.52;;;;;;;17.56;84.86;95313.06;5057328;28;20025;-73
2022/12/11 08:55:11;;;;;;;19.85;10.07;;;;;;;17.50;86.65;95330.00;5052366;28;20036;-72
2022/12/11 08:57:38;;;;;;;81.38;35.47;;;;;;;17.42;88.36;95337.38;5059641;28;20115;-72
2022/12/11 09:00:06;;;;;;;56.53;22.35;;;;;;;17.30;87.44;95321.69;5058782;28;20031;-72
2022/12/11 09:02:31;;;;;;;40.08;18.48;;;;;;;17.44;86.75;95328.06;5039196;28;20483;-73
2022/12/11 09:04:57;;;;;;;40.97;18.73;;;;;;;17.56;90.79;95347.34;5060784;28;20107;-72
2022/12/11 09:07:23;;;;;;;41.28;20.00;;;;;;;17.72;86.40;95326.28;5055427;28;20116;-72
2022/12/11 09:09:48;;;;;;;38.67;18.42;;;;;;;17.67;89.78;95347.69;5058682;28;20031;-73
2022/12/11 09:12:14;;;;;;;55.83;26.88;;;;;;;17.48;87.41;95323.09;5052964;28;20020;-73
2022/12/11 09:14:40;;;;;;;97.90;44.25;;;;;;;17.64;88.85;95344.50;5058770;28;20079;-72
2022/12/11 09:17:05;;;;;;;54.72;26.15;;;;;;;17.56;88.70;95344.66;5061937;28;20124;-73
2022/12/11 09:19:31;;;;;;;56.58;25.70;;;;;;;17.56;86.72;95334.69;5040989;28;20035;-71
2022/12/11 09:21:56;;;;;;;40.47;16.75;;;;;;;17.52;85.07;95330.66;5060780;28;20462;-72
2022/12/11 09:24:22;;;;;;;40.45;18.73;;;;;;;17.40;87.46;95337.59;5056115;28;20020;-72
2022/12/11 09:26:47;;;;;;;193.88;91.75;;;;;;;17.45;88.26;95345.09;5057832;28;20060;-73
2022/12/11 09:29:13;;;;;;;41.42;19.33;;;;;;;17.40;89.74;95339.44;5044665;28;20017;-72
2022/12/11 09:31:38;;;;;;;44.53;16.38;;;;;;;17.27;87.57;95332.03;5065316;28;20051;-72
2022/12/11 09:34:07;;;;;;;42.25;15.63;;;;;;;17.27;86.36;95327.47;5055562;28;20017;-72
2022/12/11 09:36:33;;;;;;;41.58;19.98;;;;;;;17.48;86.40;95328.50;5055134;28;20221;-73
2022/12/11 09:39:00;;;;;;;40.85;14.60;;;;;;;17.53;89.11;95336.91;5061748;28;20162;-72
2022/12/11 09:42:11;;;;;;;20.27;9.82;;;;;;;17.51;85.05;95328.13;5054970;28;20037;-71
2022/12/11 09:44:47;;;;;;;28.88;11.63;;;;;;;17.60;83.91;95327.84;5039267;28;20045;-72
2022/12/11 09:47:19;;;;;;;21.15;8.65;;;;;;;17.41;86.38;95319.50;5051056;28;20403;-72
2022/12/11 09:49:46;;;;;;;9.52;4.72;;;;;;;17.28;89.37;95328.31;5053072;28;20029;-73
2022/12/11 09:52:28;;;;;;;14.43;6.30;;;;;;;17.06;90.80;95334.69;5061295;28;20031;-73
2022/12/11 09:54:57;;;;;;;35.83;13.60;;;;;;;16.64;92.11;95322.69;5048875;28;20036;-73
2022/12/11 09:57:28;;;;;;;61.22;23.38;;;;;;;16.32;96.41;95336.53;5061803;28;20107;-73
2022/12/11 10:00:04;;;;;;;21.00;8.77;;;;;;;16.14;100.00;95344.97;5057404;28;20055;-72
2022/12/11 10:02:47;;;;;;;18.90;10.25;;;;;;;15.33;100.00;95342.03;5065031;28;20278;-73
2022/12/11 10:05:25;;;;;;;18.33;9.00;;;;;;;15.34;100.00;95359.91;5053221;28;20039;-72
2022/12/11 10:07:59;;;;;;;12.68;7.63;;;;;;;15.00;100.00;95349.47;5056122;28;20090;-72
2022/12/11 10:11:05;;;;;;;35.65;14.20;;;;;;;15.22;100.00;95371.25;5048574;28;20094;-71
2022/12/11 10:13:54;;;;;;;12.27;5.50;;;;;;;14.90;100.00;95377.63;5044127;28;20051;-71
2022/12/11 10:16:38;;;;;;;11.60;5.20;;;;;;;14.65;100.00;95391.16;5056551;28;20025;-72
2022/12/11 10:19:04;;;;;;;15.38;6.70;;;;;;;14.05;100.00;95366.56;5059834;28;20496;-71
2022/12/11 10:21:38;;;;;;;26.00;10.75;;;;;;;13.74;100.00;95395.13;5064997;28;20025;-71
2022/12/11 10:24:11;;;;;;;16.55;7.65;;;;;;;13.71;100.00;95418.78;5053820;28;20028;-73
2022/12/11 10:26:38;;;;;;;15.90;6.90;;;;;;;13.42;100.00;95420.06;5039357;28;20033;-73
2022/12/11 10:29:05;;;;;;;16.08;8.25;;;;;;;13.37;100.00;95411.69;5059766;28;20021;-71
2022/12/11 10:31:34;;;;;;;32.00;10.25;;;;;;;13.27;100.00;95437.81;5060506;28;20033;-72
2022/12/11 10:34:15;;;;;;;16.13;7.25;;;;;;;13.16;100.00;95451.56;5061262;28;20097;-73
2022/12/11 10:36:41;;;;;;;13.50;7.55;;;;;;;12.96;100.00;95460.81;5068258;28;20032;-73
2022/12/11 10:39:21;;;;;;;17.95;9.25;;;;;;;13.04;100.00;95479.66;5051496;28;20052;-73
2022/12/11 10:41:49;;;;;;;17.65;8.93;;;;;;;13.10;100.00;95500.50;5061187;28;20107;-73
2022/12/11 10:44:22;;;;;;;19.00;9.38;;;;;;;12.83;100.00;95500.66;5067111;28;20056;-73
2022/12/11 10:47:06;;;;;;;26.30;10.68;;;;;;;12.92;100.00;95526.56;5069288;28;20060;-74
2022/12/11 10:49:33;;;;;;;18.48;8.93;;;;;;;12.81;100.00;95535.69;5066467;28;20032;-72
2022/12/11 10:52:00;;;;;;;19.42;9.60;;;;;;;12.39;100.00;95532.03;5052147;28;20024;-72
2022/12/11 10:54:37;;;;;;;15.95;8.43;;;;;;;12.07;100.00;95537.97;5056846;28;20115;-72
2022/12/11 10:57:04;;;;;;;14.63;9.05;;;;;;;12.16;100.00;95555.78;5063395;28;20036;-72
2022/12/11 10:59:36;;;;;;;20.92;10.75;;;;;;;12.20;100.00;95570.59;5056428;28;20020;-72
2022/12/11 11:02:04;;;;;;;17.55;9.52;;;;;;;11.98;100.00;95560.31;5055983;28;20043;-72
2022/12/11 11:04:37;;;;;;;11.80;7.40;;;;;;;12.10;100.00;95575.16;5066137;28;20052;-73
2022/12/11 11:07:15;;;;;;;12.68;6.93;;;;;;;12.14;100.00;95587.28;5060493;28;20488;-73
2022/12/11 11:09:42;;;;;;;15.40;7.78;;;;;;;12.03;100.00;95584.81;5051872;28;20516;-71
2022/12/11 11:12:23;;;;;;;10.63;5.75;;;;;;;11.94;100.00;95594.59;5065186;28;20036;-71
2022/12/11 11:15:08;;;;;;;13.50;6.55;;;;;;;11.92;100.00;95609.16;5064749;28;20036;-72
2022/12/11 11:17:42;;;;;;;13.30;8.23;;;;;;;11.88;100.00;95613.09;5052526;28;20495;-72
2022/12/11 11:20:13;;;;;;;12.65;7.68;;;;;;;11.74;100.00;95621.66;5039991;28;20551;-72
2022/12/11 11:22:45;;;;;;;14.93;7.15;;;;;;;11.73;100.00;95619.97;5058123;28;20476;-72
2022/12/11 11:25:18;;;;;;;14.98;8.15;;;;;;;11.58;100.00;95616.91;5042440;28;20116;-72
2022/12/11 11:28:03;;;;;;;17.15;8.02;;;;;;;11.42;100.00;95620.22;5069270;28;20464;-73
2022/12/11 11:30:33;;;;;;;19.13;10.48;;;;;;;11.29;100.00;95640.28;5062341;28;20053;-72
2022/12/11 11:33:05;;;;;;;21.15;10.50;;;;;;;11.23;100.00;95655.09;5043653;28;20435;-72
2022/12/11 11:35:31;;;;;;;26.83;14.20;;;;;;;11.08;100.00;95659.22;5058891;28;20082;-71
2022/12/11 11:38:17;;;;;;;19.73;10.10;;;;;;;10.95;100.00;95657.84;5035342;28;20029;-74
2022/12/11 11:41:00;;;;;;;13.27;8.00;;;;;;;10.66;100.00;95633.81;5049371;28;20447;-74
2022/12/11 11:43:39;;;;;;;18.65;9.95;;;;;;;10.13;100.00;95636.91;5057326;28;20496;-74